createdAt,value
2022-10-31T00:01:23.893Z,98192.94
2022-10-31T00:03:51.728Z,98194.98
2022-10-31T00:06:19.812Z,98202.45
2022-10-31T00:08:49.032Z,98202.44
2022-10-31T00:11:16.909Z,98205.77
2022-10-31T00:13:44.711Z,98205.58
2022-10-31T00:16:20.898Z,98204.70
2022-10-31T00:18:53.409Z,98207.90
2022-10-31T00:21:22.353Z,98203.23
2022-10-31T00:23:50.345Z,98200.28
2022-10-31T00:26:19.873Z,98200.33
2022-10-31T00:28:48.895Z,98202.27
2022-10-31T00:31:16.920Z,98199.84
2022-10-31T00:33:45.696Z,98199.02
2022-10-31T00:36:16.820Z,98200.99
2022-10-31T00:38:45.660Z,98200.27
2022-10-31T00:41:15.746Z,98202.92
2022-10-31T00:43:44.398Z,98202.08
2022-10-31T00:46:13.970Z,98201.88
2022-10-31T00:48:42.896Z,98200.11
2022-10-31T00:51:11.092Z,98202.52
2022-10-31T00:53:39.064Z,98201.83
2022-10-31T00:56:07.607Z,98199.52
2022-10-31T00:58:36.439Z,98200.36
2022-10-31T01:01:05.776Z,98201.54
2022-10-31T01:03:36.206Z,98200.98
2022-10-31T01:06:07.876Z,98200.05
2022-10-31T01:08:37.208Z,98198.26
2022-10-31T01:11:08.266Z,98193.41
2022-10-31T01:13:37.242Z,98195.24
2022-10-31T01:16:07.173Z,98193.07
2022-10-31T01:18:36.492Z,98193.48
2022-10-31T01:21:06.107Z,98193.13
2022-10-31T01:23:35.127Z,98192.79
2022-10-31T01:26:22.566Z,98196.79
2022-10-31T01:28:56.496Z,98197.14
2022-10-31T01:31:27.201Z,98197.66
2022-10-31T01:33:56.062Z,98198.86
2022-10-31T01:36:29.436Z,98200.05
2022-10-31T01:38:59.771Z,98200.02
2022-10-31T01:41:31.811Z,98195.78
2022-10-31T01:44:02.402Z,98200.70
2022-10-31T01:46:44.475Z,98199.49
2022-10-31T01:49:22.708Z,98199.48
2022-10-31T01:51:58.580Z,98202.39
2022-10-31T01:54:32.705Z,98202.25
2022-10-31T01:57:03.816Z,98205.80
2022-10-31T01:59:36.212Z,98198.85
2022-10-31T02:02:04.186Z,98201.69
2022-10-31T02:04:32.360Z,98201.09
2022-10-31T02:07:04.999Z,98201.08
2022-10-31T02:09:34.019Z,98202.27
2022-10-31T02:12:04.627Z,98205.42
2022-10-31T02:14:32.989Z,98205.84
2022-10-31T02:17:01.011Z,98208.95
2022-10-31T02:19:41.787Z,98210.30
2022-10-31T02:22:17.370Z,98210.98
2022-10-31T02:25:04.448Z,98207.44
2022-10-31T02:27:38.580Z,98203.55
2022-10-31T02:30:11.104Z,98202.29
2022-10-31T02:32:43.116Z,98203.16
2022-10-31T02:35:17.054Z,98203.04
2022-10-31T02:37:59.126Z,98201.98
2022-10-31T02:40:31.785Z,98203.77
2022-10-31T02:43:45.567Z,98204.55
2022-10-31T02:46:33.558Z,98203.61
2022-10-31T02:49:09.248Z,98204.73
2022-10-31T02:51:38.921Z,98207.39
2022-10-31T02:54:16.867Z,98207.56
2022-10-31T02:56:44.686Z,98208.05
2022-10-31T02:59:12.557Z,98209.09
2022-10-31T03:01:53.508Z,98207.52
2022-10-31T03:04:24.624Z,98211.38
2022-10-31T03:07:01.401Z,98210.52
2022-10-31T03:09:39.482Z,98212.13
2022-10-31T03:12:27.677Z,98213.02
2022-10-31T03:15:10.074Z,98213.88
2022-10-31T03:17:52.145Z,98214.23
2022-10-31T03:20:25.484Z,98214.75
2022-10-31T03:22:56.222Z,98217.39
2022-10-31T03:25:24.533Z,98221.09
2022-10-31T03:27:58.231Z,98218.53
2022-10-31T03:30:26.438Z,98221.52
2022-10-31T03:33:01.213Z,98216.96
2022-10-31T03:35:33.351Z,98219.58
2022-10-31T03:38:06.878Z,98220.45
2022-10-31T03:40:40.619Z,98222.73
2022-10-31T03:43:15.666Z,98223.04
2022-10-31T03:45:46.678Z,98223.71
2022-10-31T03:48:17.257Z,98221.81
2022-10-31T03:50:59.277Z,98224.10
2022-10-31T03:53:41.526Z,98225.47
2022-10-31T03:56:34.731Z,98226.52
2022-10-31T03:59:11.777Z,98224.59
2022-10-31T04:01:44.939Z,98225.45
2022-10-31T04:04:14.507Z,98226.53
2022-10-31T04:06:46.517Z,98224.83
2022-10-31T04:09:17.049Z,98223.80
2022-10-31T04:11:52.646Z,98221.08
2022-10-31T04:14:42.459Z,98220.09
2022-10-31T04:17:14.624Z,98221.34
2022-10-31T04:19:43.587Z,98221.88
2022-10-31T04:22:11.763Z,98223.31
2022-10-31T04:24:41.293Z,98228.89
2022-10-31T04:27:10.067Z,98227.80
2022-10-31T04:29:38.067Z,98227.08
2022-10-31T04:32:06.113Z,98225.98
2022-10-31T04:34:34.159Z,98227.85
2022-10-31T04:37:02.143Z,98228.98
2022-10-31T04:39:30.299Z,98227.86
2022-10-31T04:42:31.157Z,98231.16
2022-10-31T04:44:59.819Z,98233.11
2022-10-31T04:47:28.235Z,98232.63
2022-10-31T04:49:56.400Z,98238.31
2022-10-31T04:52:24.232Z,98246.28
2022-10-31T04:54:54.208Z,98249.15
2022-10-31T04:57:46.089Z,98252.65
2022-10-31T05:00:16.777Z,98253.33
2022-10-31T05:02:50.504Z,98254.17
2022-10-31T05:05:21.972Z,98253.63
2022-10-31T05:07:52.949Z,98255.58
2022-10-31T05:10:24.494Z,98255.58
2022-10-31T05:13:04.874Z,98253.27
2022-10-31T05:16:05.979Z,98253.95
2022-10-31T05:18:52.248Z,98257.85
2022-10-31T05:21:38.961Z,98262.05
2022-10-31T05:24:07.542Z,98261.48
2022-10-31T05:26:35.813Z,98266.35
2022-10-31T05:29:03.666Z,98265.95
2022-10-31T05:31:31.637Z,98263.83
2022-10-31T05:34:00.001Z,98263.33
2022-10-31T05:36:46.301Z,98264.04
2022-10-31T05:39:17.148Z,98262.70
2022-10-31T05:41:48.546Z,98265.16
2022-10-31T05:44:20.918Z,98271.48
2022-10-31T05:47:14.926Z,98276.92
2022-10-31T05:50:01.462Z,98279.58
2022-10-31T05:52:56.842Z,98276.08
2022-10-31T05:55:33.007Z,98276.24
2022-10-31T05:58:05.648Z,98280.02
2022-10-31T06:00:36.117Z,98283.29
2022-10-31T06:05:52.279Z,98290.58
2022-10-31T06:08:25.696Z,98294.05
2022-10-31T06:10:54.983Z,98295.78
2022-10-31T06:13:32.734Z,98294.70
2022-10-31T06:16:10.217Z,98299.02
2022-10-31T06:18:38.607Z,98295.59
2022-10-31T06:21:06.551Z,98296.67
2022-10-31T06:23:34.296Z,98301.26
2022-10-31T06:26:20.740Z,98304.20
2022-10-31T06:28:49.785Z,98304.69
2022-10-31T06:31:37.730Z,98307.27
2022-10-31T06:34:05.836Z,98303.20
2022-10-31T06:36:34.374Z,98302.79
2022-10-31T06:39:02.155Z,98303.59
2022-10-31T06:41:30.249Z,98303.88
2022-10-31T06:43:58.526Z,98303.30
2022-10-31T06:46:59.302Z,98303.83
2022-10-31T06:49:47.399Z,98307.68
2022-10-31T06:52:17.934Z,98305.52
2022-10-31T06:54:45.953Z,98303.10
2022-10-31T06:57:15.470Z,98300.48
2022-10-31T06:59:43.482Z,98298.04
2022-10-31T07:02:26.748Z,98298.66
2022-10-31T07:04:54.816Z,98295.10
2022-10-31T07:07:24.434Z,98296.42
2022-10-31T07:09:52.820Z,98297.02
2022-10-31T07:12:26.575Z,98297.42
2022-10-31T07:14:58.577Z,98296.08
2022-10-31T07:17:29.858Z,98292.57
2022-10-31T07:20:00.908Z,98294.11
2022-10-31T07:22:36.851Z,98287.32
2022-10-31T07:25:06.370Z,98279.87
2022-10-31T07:27:53.935Z,98279.23
2022-10-31T07:30:22.839Z,98279.17
2022-10-31T07:32:52.448Z,98281.59
2022-10-31T07:35:24.299Z,98279.27
2022-10-31T07:38:08.704Z,98278.88
2022-10-31T07:40:36.802Z,98279.17
2022-10-31T07:43:08.596Z,98281.19
2022-10-31T07:45:54.695Z,98283.23
2022-10-31T07:48:52.017Z,98284.92
2022-10-31T07:51:42.744Z,98290.62
2022-10-31T07:54:31.180Z,98293.13
2022-10-31T07:56:59.020Z,98294.14
2022-10-31T07:59:28.357Z,98290.11
2022-10-31T08:01:56.522Z,98293.92
2022-10-31T08:04:33.887Z,98290.99
2022-10-31T08:07:20.876Z,98290.21
2022-10-31T08:10:01.508Z,98293.59
2022-10-31T08:12:32.191Z,98298.58
2022-10-31T08:15:00.452Z,98300.38
2022-10-31T08:17:30.775Z,98302.27
2022-10-31T08:20:00.887Z,98296.80
2022-10-31T08:22:42.809Z,98301.75
2022-10-31T08:25:11.532Z,98305.80
2022-10-31T08:27:42.047Z,98308.14
2022-10-31T08:30:17.603Z,98307.93
2022-10-31T08:33:19.485Z,98309.17
2022-10-31T08:36:07.131Z,98309.36
2022-10-31T08:39:01.806Z,98305.92
2022-10-31T08:41:31.097Z,98305.46
2022-10-31T08:44:00.210Z,98306.81
2022-10-31T08:46:28.347Z,98308.66
2022-10-31T08:48:56.574Z,98310.79
2022-10-31T08:51:24.670Z,98313.99
2022-10-31T08:53:55.000Z,98318.73
2022-10-31T08:56:35.186Z,98318.13
2022-10-31T08:59:05.826Z,98321.79
2022-10-31T09:01:52.505Z,98322.02
2022-10-31T09:04:20.628Z,98323.06
2022-10-31T09:07:19.768Z,98325.23
2022-10-31T09:09:37.393Z,98329.69
2022-10-31T09:12:05.669Z,98331.90
2022-10-31T09:14:52.581Z,98327.84
2022-10-31T09:17:35.189Z,98328.49
2022-10-31T09:20:22.510Z,98327.69
2022-10-31T09:23:03.666Z,98323.50
2022-10-31T09:25:35.295Z,98321.11
2022-10-31T09:28:26.733Z,98324.84
2022-10-31T09:30:56.126Z,98320.95
2022-10-31T09:33:43.285Z,98325.95
2022-10-31T09:36:32.121Z,98329.81
2022-10-31T09:39:00.221Z,98328.89
2022-10-31T09:42:09.238Z,98327.33
2022-10-31T09:45:16.391Z,98330.31
2022-10-31T09:47:52.498Z,98333.23
2022-10-31T09:50:42.686Z,98331.45
2022-10-31T09:53:59.292Z,98330.48
2022-10-31T09:56:29.185Z,98325.19
2022-10-31T09:59:06.732Z,98322.02
2022-10-31T10:01:48.711Z,98322.83
2022-10-31T10:04:40.678Z,98325.70
2022-10-31T10:07:48.449Z,98329.78
2022-10-31T10:10:58.218Z,98331.82
2022-10-31T10:14:04.900Z,98330.39
2022-10-31T10:17:14.304Z,98330.51
2022-10-31T10:19:54.912Z,98325.31
2022-10-31T10:22:48.810Z,98322.35
2022-10-31T10:25:24.412Z,98317.30
2022-10-31T10:28:19.260Z,98316.09
2022-10-31T10:30:56.192Z,98316.03
2022-10-31T10:33:47.656Z,98313.40
2022-10-31T10:36:22.770Z,98312.60
2022-10-31T10:39:00.004Z,98309.77
2022-10-31T10:41:34.477Z,98308.83
2022-10-31T10:44:06.536Z,98305.83
2022-10-31T10:46:53.107Z,98301.91
2022-10-31T10:49:52.340Z,98299.64
2022-10-31T10:52:50.921Z,98300.41
2022-10-31T10:55:58.236Z,98298.24
2022-10-31T10:58:26.424Z,98298.65
2022-10-31T11:00:56.633Z,98294.06
2022-10-31T11:03:25.545Z,98300.67
2022-10-31T11:06:03.021Z,98299.30
2022-10-31T11:08:32.651Z,98295.44
2022-10-31T11:11:19.295Z,98295.98
2022-10-31T11:13:50.128Z,98296.52
2022-10-31T11:16:27.228Z,98293.81
2022-10-31T11:19:08.914Z,98295.05
2022-10-31T11:21:37.793Z,98291.98
2022-10-31T11:24:11.879Z,98290.21
2022-10-31T11:26:42.009Z,98287.44
2022-10-31T11:29:26.348Z,98287.72
2022-10-31T11:31:57.267Z,98288.21
2022-10-31T11:34:38.522Z,98285.54
2022-10-31T11:37:19.837Z,98280.82
2022-10-31T11:39:55.579Z,98280.15
2022-10-31T11:42:28.318Z,98279.48
2022-10-31T11:44:57.655Z,98281.42
2022-10-31T11:47:32.796Z,98281.34
2022-10-31T11:50:10.308Z,98281.25
2022-10-31T11:52:41.354Z,98285.98
2022-10-31T11:55:29.919Z,98286.65
2022-10-31T11:57:59.250Z,98283.05
2022-10-31T12:00:32.700Z,98282.46
2022-10-31T12:03:31.532Z,98279.17
2022-10-31T12:06:08.637Z,98280.35
2022-10-31T12:08:38.580Z,98279.37
2022-10-31T12:11:33.031Z,98278.32
2022-10-31T12:14:33.056Z,98276.20
2022-10-31T12:17:11.020Z,98276.61
2022-10-31T12:20:20.855Z,98276.79
2022-10-31T12:23:17.212Z,98280.80
2022-10-31T12:26:14.946Z,98281.05
2022-10-31T12:29:09.136Z,98281.30
2022-10-31T12:31:55.201Z,98280.45
2022-10-31T12:34:26.382Z,98277.68
2022-10-31T12:37:28.649Z,98275.48
2022-10-31T12:40:39.527Z,98275.30
2022-10-31T12:43:10.238Z,98270.92
2022-10-31T12:45:55.862Z,98265.99
2022-10-31T12:49:05.444Z,98265.62
2022-10-31T12:51:52.186Z,98268.55
2022-10-31T12:54:41.573Z,98269.52
2022-10-31T12:57:28.875Z,98265.63
2022-10-31T13:00:14.065Z,98266.03
2022-10-31T13:02:42.018Z,98265.80
2022-10-31T13:05:32.356Z,98264.40
2022-10-31T13:08:13.744Z,98263.44
2022-10-31T13:10:50.044Z,98262.20
2022-10-31T13:13:28.225Z,98259.60
2022-10-31T13:16:11.239Z,98256.26
2022-10-31T13:18:46.389Z,98254.56
2022-10-31T13:21:22.065Z,98249.49
2022-10-31T13:23:52.877Z,98249.23
2022-10-31T13:26:44.702Z,98251.74
2022-10-31T13:29:26.935Z,98250.70
2022-10-31T13:31:58.467Z,98251.03
2022-10-31T13:34:36.534Z,98249.04
2022-10-31T13:37:29.194Z,98251.67
2022-10-31T13:40:06.385Z,98251.67
2022-10-31T13:43:01.229Z,98246.63
2022-10-31T13:45:29.675Z,98244.62
2022-10-31T13:47:59.236Z,98247.94
2022-10-31T13:50:33.399Z,98250.60
2022-10-31T13:53:11.815Z,98244.52
2022-10-31T13:55:43.288Z,98237.56
2022-10-31T13:58:20.606Z,98233.91
2022-10-31T14:01:00.692Z,98239.92
2022-10-31T14:03:57.442Z,98237.01
2022-10-31T14:06:17.968Z,98243.71
2022-10-31T14:08:52.853Z,98239.02
2022-10-31T14:11:32.931Z,98236.59
2022-10-31T14:14:13.012Z,98241.41
2022-10-31T14:16:45.290Z,98237.56
2022-10-31T14:19:19.651Z,98240.55
2022-10-31T14:21:49.692Z,98245.63
2022-10-31T14:24:24.322Z,98247.43
2022-10-31T14:27:22.447Z,98245.77
2022-10-31T14:29:50.882Z,98248.45
2022-10-31T14:32:28.889Z,98245.81
2022-10-31T14:34:58.796Z,98247.38
2022-10-31T14:37:43.371Z,98246.09
2022-10-31T14:40:36.457Z,98249.66
2022-10-31T14:43:33.658Z,98256.20
2022-10-31T14:46:19.177Z,98256.46
2022-10-31T14:49:11.784Z,98252.48
2022-10-31T14:51:45.325Z,98249.98
2022-10-31T14:54:18.569Z,98247.52
2022-10-31T14:56:54.549Z,98247.65
2022-10-31T14:59:28.753Z,98249.87
2022-10-31T15:02:20.316Z,98250.52
2022-10-31T15:04:49.466Z,98255.04
2022-10-31T15:07:24.993Z,98253.23
2022-10-31T15:10:07.154Z,98257.88
2022-10-31T15:12:39.198Z,98258.31
2022-10-31T15:15:27.782Z,98260.49
2022-10-31T15:17:59.753Z,98263.86
2022-10-31T15:20:32.655Z,98267.59
2022-10-31T15:23:01.649Z,98269.91
2022-10-31T15:25:36.399Z,98272.92
2022-10-31T15:28:15.106Z,98273.13
2022-10-31T15:30:56.501Z,98275.08
2022-10-31T15:33:27.900Z,98274.56
2022-10-31T15:36:03.902Z,98274.08
2022-10-31T15:38:32.981Z,98281.95
2022-10-31T15:41:19.311Z,98286.88
2022-10-31T15:43:49.365Z,98288.10
2022-10-31T15:46:18.285Z,98288.28
2022-10-31T15:48:48.687Z,98293.52
2022-10-31T15:51:17.136Z,98291.93
2022-10-31T15:53:50.927Z,98294.89
2022-10-31T15:56:25.496Z,98294.34
2022-10-31T15:58:55.468Z,98297.43
2022-10-31T16:01:30.139Z,98295.81
2022-10-31T16:04:13.916Z,98296.99
2022-10-31T16:06:43.088Z,98299.20
2022-10-31T16:09:25.115Z,98302.45
2022-10-31T16:11:55.448Z,98305.17
2022-10-31T16:14:29.304Z,98309.17
2022-10-31T16:17:00.194Z,98311.40
2022-10-31T16:19:35.428Z,98315.89
2022-10-31T16:22:20.973Z,98321.30
2022-10-31T16:24:55.000Z,98323.78
2022-10-31T16:27:29.558Z,98324.85
2022-10-31T16:30:02.558Z,98327.52
2022-10-31T16:32:52.248Z,98331.73
2022-10-31T16:35:26.551Z,98334.50
2022-10-31T16:37:55.776Z,98336.54
2022-10-31T16:40:24.959Z,98335.96
2022-10-31T16:42:53.807Z,98339.95
2022-10-31T16:45:24.797Z,98340.61
2022-10-31T16:47:53.011Z,98343.52
2022-10-31T16:50:27.019Z,98343.50
2022-10-31T16:55:58.760Z,98349.81
2022-10-31T16:58:30.892Z,98352.64
2022-10-31T17:00:59.941Z,98353.34
2022-10-31T17:03:29.844Z,98353.19
2022-10-31T17:05:58.060Z,98354.62
2022-10-31T17:08:26.475Z,98356.02
2022-10-31T17:10:56.662Z,98356.19
2022-10-31T17:13:28.987Z,98354.42
2022-10-31T17:16:00.975Z,98356.33
2022-10-31T17:18:29.702Z,98362.79
2022-10-31T17:21:03.715Z,98363.29
2022-10-31T17:23:33.510Z,98365.70
2022-10-31T17:26:01.599Z,98367.79
2022-10-31T17:28:29.501Z,98366.92
2022-10-31T17:30:59.506Z,98367.45
2022-10-31T17:33:28.143Z,98366.92
2022-10-31T17:35:56.203Z,98365.52
2022-10-31T17:38:24.570Z,98367.48
2022-10-31T17:40:52.438Z,98364.22
2022-10-31T17:43:20.574Z,98367.24
2022-10-31T17:45:48.496Z,98366.06
2022-10-31T17:48:16.679Z,98364.19
2022-10-31T17:50:44.558Z,98369.09
2022-10-31T17:53:12.403Z,98369.64
2022-10-31T17:55:40.276Z,98371.75
2022-10-31T17:58:08.664Z,98369.98
2022-10-31T18:00:36.739Z,98369.27
2022-10-31T18:03:05.448Z,98373.45
2022-10-31T18:05:34.720Z,98371.84
2022-10-31T18:08:04.364Z,98369.36
2022-10-31T18:10:33.046Z,98370.02
2022-10-31T18:13:01.479Z,98372.29
2022-10-31T18:15:29.626Z,98371.37
2022-10-31T18:17:57.925Z,98372.77
2022-10-31T18:20:26.114Z,98375.39
2022-10-31T18:22:54.477Z,98373.33
2022-10-31T18:25:22.445Z,98366.73
2022-10-31T18:27:50.352Z,98370.59
2022-10-31T18:30:18.915Z,98370.64
2022-10-31T18:32:52.586Z,98370.52
2022-10-31T18:35:20.875Z,98368.83
2022-10-31T18:37:49.016Z,98371.65
2022-10-31T18:40:17.352Z,98372.37
2022-10-31T18:42:45.228Z,98372.71
2022-10-31T18:45:31.335Z,98369.88
2022-10-31T18:48:01.209Z,98367.05
2022-10-31T18:50:29.294Z,98363.36
2022-10-31T18:52:57.100Z,98367.36
2022-10-31T18:55:24.836Z,98368.73
2022-10-31T18:57:52.687Z,98367.54
2022-10-31T19:00:20.613Z,98368.27
2022-10-31T19:02:48.425Z,98368.80
2022-10-31T19:05:16.348Z,98369.49
2022-10-31T19:07:44.586Z,98366.73
2022-10-31T19:10:12.460Z,98365.36
2022-10-31T19:12:40.300Z,98369.63
2022-10-31T19:15:08.580Z,98370.05
2022-10-31T19:17:36.457Z,98371.34
2022-10-31T19:20:04.491Z,98373.30
2022-10-31T19:22:32.428Z,98371.95
2022-10-31T19:25:00.268Z,98372.37
2022-10-31T19:27:28.369Z,98372.22
2022-10-31T19:29:56.394Z,98372.42
2022-10-31T19:32:24.450Z,98374.52
2022-10-31T19:34:52.286Z,98373.64
2022-10-31T19:37:20.114Z,98372.01
2022-10-31T19:39:48.026Z,98375.65
2022-10-31T19:42:16.460Z,98377.90
2022-10-31T19:44:44.376Z,98379.62
2022-10-31T19:47:12.457Z,98381.91
2022-10-31T19:49:40.302Z,98381.73
2022-10-31T19:52:08.136Z,98380.90
2022-10-31T19:54:36.038Z,98382.29
2022-10-31T19:57:03.975Z,98381.79
2022-10-31T19:59:36.563Z,98381.90
2022-10-31T20:02:07.241Z,98386.37
2022-10-31T20:04:35.073Z,98387.63
2022-10-31T20:07:02.947Z,98386.24
2022-10-31T20:09:30.758Z,98392.04
2022-10-31T20:11:58.613Z,98392.77
2022-10-31T20:14:26.480Z,98395.42
2022-10-31T20:16:54.372Z,98397.91
2022-10-31T20:19:24.214Z,98396.70
2022-10-31T20:21:52.341Z,98397.54
2022-10-31T20:24:20.355Z,98399.61
2022-10-31T20:26:48.195Z,98399.40
2022-10-31T20:29:16.355Z,98396.60
2022-10-31T20:31:45.820Z,98403.27
2022-10-31T20:34:14.476Z,98407.31
2022-10-31T20:36:42.234Z,98403.70
2022-10-31T20:39:10.339Z,98405.46
2022-10-31T20:41:39.580Z,98405.31
2022-10-31T20:44:07.601Z,98401.89
2022-10-31T20:46:35.397Z,98400.38
2022-10-31T20:49:03.844Z,98403.17
2022-10-31T20:51:31.980Z,98399.84
2022-10-31T20:54:00.575Z,98398.97
2022-10-31T20:56:30.176Z,98401.58
2022-10-31T20:58:58.347Z,98400.33
2022-10-31T21:01:28.973Z,98398.92
2022-10-31T21:03:58.783Z,98399.07
2022-10-31T21:06:27.489Z,98399.20
2022-10-31T21:08:55.734Z,98394.08
2022-10-31T21:11:25.694Z,98389.16
2022-10-31T21:13:54.655Z,98389.86
2022-10-31T21:16:31.147Z,98388.11
2022-10-31T21:19:00.889Z,98388.63
2022-10-31T21:21:34.486Z,98386.05
2022-10-31T21:24:09.084Z,98387.02
2022-10-31T21:26:39.997Z,98388.11
2022-10-31T21:29:09.908Z,98384.80
2022-10-31T21:31:39.371Z,98383.77
2022-10-31T21:34:07.809Z,98383.58
2022-10-31T21:36:36.572Z,98383.95
2022-10-31T21:39:06.219Z,98379.77
2022-10-31T21:41:34.481Z,98384.86
2022-10-31T21:44:02.652Z,98387.67
2022-10-31T21:46:32.396Z,98389.24
2022-10-31T21:49:02.768Z,98383.81
2022-10-31T21:51:33.672Z,98380.48
2022-10-31T21:54:20.692Z,98377.83
2022-10-31T21:56:49.766Z,98377.45
2022-10-31T21:59:17.672Z,98379.38
2022-10-31T22:01:45.587Z,98377.52
2022-10-31T22:04:14.835Z,98373.75
2022-10-31T22:06:42.788Z,98374.35
2022-10-31T22:09:13.198Z,98377.44
2022-10-31T22:11:42.145Z,98379.07
2022-10-31T22:14:13.041Z,98380.31
2022-10-31T22:16:41.471Z,98378.77
2022-10-31T22:19:12.611Z,98377.94
2022-10-31T22:21:43.447Z,98375.80
2022-10-31T22:24:12.423Z,98374.36
2022-10-31T22:26:40.532Z,98375.02
2022-10-31T22:29:14.480Z,98376.22
2022-10-31T22:31:44.566Z,98380.23
2022-10-31T22:34:14.793Z,98374.11
2022-10-31T22:36:43.318Z,98369.70
2022-10-31T22:39:15.862Z,98367.45
2022-10-31T22:41:43.633Z,98368.52
2022-10-31T22:44:11.476Z,98369.42
2022-10-31T22:46:40.240Z,98370.50
2022-10-31T22:49:11.463Z,98367.39
2022-10-31T22:51:40.987Z,98366.34
2022-10-31T22:54:13.307Z,98370.50
2022-10-31T22:56:41.176Z,98369.04
2022-10-31T22:59:13.852Z,98367.27
2022-10-31T23:01:44.914Z,98367.60
2022-10-31T23:04:14.945Z,98366.52
2022-10-31T23:06:43.182Z,98363.52
2022-10-31T23:09:14.854Z,98362.13
2022-10-31T23:11:43.072Z,98361.11
2022-10-31T23:14:14.534Z,98361.11
2022-10-31T23:16:54.970Z,98358.31
2022-10-31T23:19:31.731Z,98357.99
2022-10-31T23:22:03.152Z,98357.99
2022-10-31T23:24:39.917Z,98355.71
2022-10-31T23:27:21.140Z,98357.14
2022-10-31T23:29:59.339Z,98354.70
2022-10-31T23:32:30.270Z,98352.98
2022-10-31T23:35:00.184Z,98351.79
2022-10-31T23:37:30.845Z,98347.59
2022-10-31T23:39:59.336Z,98346.86
2022-10-31T23:42:28.321Z,98349.30
2022-10-31T23:44:56.518Z,98345.25
2022-10-31T23:47:24.388Z,98345.07
2022-10-31T23:49:52.262Z,98345.59
2022-10-31T23:52:20.185Z,98346.46
2022-10-31T23:54:48.272Z,98344.55
2022-10-31T23:57:16.858Z,98346.66
2022-10-31T23:59:44.822Z,98341.61
